Terminal Aerodrome Forecast
Issued by NWS Flagstaff, AZ

Home | Current Version | Previous Version | Text Only | Print | Product List | Glossary On
Versions: 1 2 3 4 5 6 7 8 9 10 11 12 13 14 15 16
000
FTUS45 KFGZ 270211 AAB
TAFFLG
TAF AMD
KFLG 270211Z 2702/2724 VRB05KT P6SM FEW080
     FM271800 24010G15KT P6SM SCT060 OVC090 PROB30 2718/2724 P6SM
      -TSRA BKN050CB=

USA.gov is the U.S. government's official web portal to all federal, state and local government web resources and services.